Time;durP1;ratioP1;P1;durP2;ratioP2;P2;SDS_P1;SDS_P2;PMS_P1;PMS_P2;Temp;Humidity;BMP_temperature;BMP_pressure;BME280_temperature;BME280_humidity;BME280_pressure;Samples;Min_cycle;Max_cycle;Signal;HPM_P1;HPM_P2
2020/12/29 00:00:26;;;;;;;4.68;2.65;;;;;;;20.10;39.35;96269.31;4995450;28;20087;-72
2020/12/29 00:02:51;;;;;;;4.53;2.80;;;;;;;20.10;39.31;96263.25;5004292;28;20041;-75
2020/12/29 00:05:17;;;;;;;6.63;3.42;;;;;;;20.10;39.30;96263.25;5014726;28;20037;-79
2020/12/29 00:07:53;;;;;;;5.20;3.05;;;;;;;20.10;39.35;96266.69;5014807;28;20038;-75
2020/12/29 00:10:22;;;;;;;4.38;2.50;;;;;;;20.08;39.11;96272.09;5014533;28;20034;-73
2020/12/29 00:12:50;;;;;;;4.35;2.60;;;;;;;20.08;39.40;96271.28;5013522;28;20025;-75
2020/12/29 00:15:15;;;;;;;4.72;3.03;;;;;;;20.10;39.30;96281.63;4995244;28;20399;-76
2020/12/29 00:17:41;;;;;;;3.80;2.58;;;;;;;20.11;39.35;96280.69;4995079;28;20042;-72
2020/12/29 00:20:07;;;;;;;4.30;2.63;;;;;;;20.10;39.28;96282.47;4993126;28;20109;-76
2020/12/29 00:22:33;;;;;;;4.30;2.80;;;;;;;20.08;39.08;96281.78;4995031;28;20030;-76
2020/12/29 00:24:59;;;;;;;4.75;2.70;;;;;;;20.11;39.30;96286.75;4994520;28;20046;-72
2020/12/29 00:27:25;;;;;;;6.65;2.80;;;;;;;20.09;39.18;96286.03;4995007;28;20399;-74
2020/12/29 00:29:50;;;;;;;4.78;2.70;;;;;;;20.08;39.20;96292.28;4994612;28;20030;-71
2020/12/29 00:32:15;;;;;;;4.75;2.95;;;;;;;20.09;39.11;96296.56;4994601;28;20041;-73
2020/12/29 00:34:41;;;;;;;4.50;2.53;;;;;;;20.07;39.31;96294.06;4994724;28;20042;-73
2020/12/29 00:37:07;;;;;;;4.88;2.50;;;;;;;20.07;39.12;96301.94;4994555;28;20077;-75
2020/12/29 00:39:32;;;;;;;3.97;2.60;;;;;;;20.11;39.30;96299.09;4994437;28;20045;-74
2020/12/29 00:41:57;;;;;;;5.35;2.95;;;;;;;20.10;39.30;96311.38;4994562;28;20483;-72
2020/12/29 00:44:24;;;;;;;4.68;2.75;;;;;;;20.10;39.29;96302.66;4994561;28;20066;-73
2020/12/29 00:46:50;;;;;;;4.13;2.75;;;;;;;20.08;39.44;96303.63;4994675;28;20432;-74
2020/12/29 00:49:15;;;;;;;3.90;2.50;;;;;;;20.09;39.26;96317.59;4994214;28;20035;-73
2020/12/29 00:51:41;;;;;;;4.10;2.67;;;;;;;20.07;39.10;96309.84;4994333;28;20092;-73
2020/12/29 00:54:06;;;;;;;5.82;3.22;;;;;;;20.07;39.18;96314.28;4994105;28;20034;-72
2020/12/29 00:56:32;;;;;;;4.80;2.63;;;;;;;20.07;39.08;96307.22;4994389;28;20038;-73
2020/12/29 00:58:57;;;;;;;3.70;2.40;;;;;;;20.07;39.16;96309.84;4994149;28;20034;-75
2020/12/29 01:01:22;;;;;;;4.20;2.42;;;;;;;20.07;39.35;96320.34;4994291;28;20046;-72
2020/12/29 01:03:48;;;;;;;3.60;2.67;;;;;;;20.07;39.33;96325.59;5000290;28;20041;-76
2020/12/29 01:06:13;;;;;;;4.32;2.70;;;;;;;20.07;39.31;96340.56;5012210;28;20038;-72
2020/12/29 01:08:39;;;;;;;5.40;3.13;;;;;;;20.06;39.18;96333.63;5013505;28;20038;-76
2020/12/29 01:11:04;;;;;;;3.75;2.38;;;;;;;20.08;39.26;96339.59;5013714;28;20123;-74
2020/12/29 01:13:30;;;;;;;3.40;2.45;;;;;;;20.07;39.12;96344.00;5013662;28;20038;-72
2020/12/29 01:15:55;;;;;;;4.05;2.75;;;;;;;20.08;39.14;96344.84;5013663;28;20045;-72
2020/12/29 01:18:21;;;;;;;5.00;3.17;;;;;;;20.06;39.33;96352.03;5013241;28;20463;-76
2020/12/29 01:20:50;;;;;;;3.92;2.58;;;;;;;20.07;39.32;96345.81;5012976;28;20048;-75
2020/12/29 01:23:16;;;;;;;4.97;2.72;;;;;;;20.06;39.12;96359.91;5013170;28;20045;-72
2020/12/29 01:25:43;;;;;;;4.43;2.67;;;;;;;20.07;39.20;96356.31;5013798;28;20033;-74
2020/12/29 01:28:09;;;;;;;4.88;2.92;;;;;;;20.06;39.31;96355.47;5012113;28;20041;-72
2020/12/29 01:30:35;;;;;;;4.32;2.72;;;;;;;20.04;39.24;96356.56;5011926;28;20405;-73
2020/12/29 01:33:00;;;;;;;4.30;2.95;;;;;;;20.04;39.32;96359.19;5013180;28;20042;-75
2020/12/29 01:35:26;;;;;;;5.07;2.70;;;;;;;20.04;39.11;96365.28;5012959;28;20084;-75
2020/12/29 01:37:51;;;;;;;6.00;3.60;;;;;;;20.05;39.32;96360.88;5013091;28;20069;-73
2020/12/29 01:40:17;;;;;;;4.25;2.30;;;;;;;20.03;39.41;96362.78;5013223;28;20030;-73
2020/12/29 01:42:45;;;;;;;5.65;2.65;;;;;;;20.04;39.02;96364.44;5013003;28;20117;-72
2020/12/29 01:45:15;;;;;;;5.60;3.72;;;;;;;20.06;39.04;96373.06;5003176;28;20026;-74
2020/12/29 01:47:42;;;;;;;5.05;3.20;;;;;;;20.06;39.27;96379.13;4993344;28;20883;-74
2020/12/29 01:50:12;;;;;;;4.28;3.00;;;;;;;20.04;39.24;96377.59;4992795;28;20050;-76
2020/12/29 01:52:38;;;;;;;5.35;3.47;;;;;;;20.05;39.29;96385.34;5005362;28;20026;-75
2020/12/29 01:55:05;;;;;;;5.50;3.20;;;;;;;20.06;39.30;96381.75;5012781;28;20495;-74
2020/12/29 01:57:31;;;;;;;5.07;3.10;;;;;;;20.04;39.28;96388.94;4996352;28;20030;-74
2020/12/29 01:59:57;;;;;;;5.32;3.03;;;;;;;20.05;39.25;96398.47;4993179;28;20045;-72
2020/12/29 02:02:22;;;;;;;4.47;3.15;;;;;;;20.04;39.15;96396.81;4992827;28;20034;-73
2020/12/29 02:04:48;;;;;;;4.78;3.05;;;;;;;20.06;39.30;96401.97;5020875;28;20112;-73
2020/12/29 02:07:14;;;;;;;7.47;3.05;;;;;;;20.05;39.18;96405.53;5032220;28;20106;-74
2020/12/29 02:09:40;;;;;;;4.78;3.15;;;;;;;20.05;39.21;96406.38;5031141;28;20037;-74
2020/12/29 02:12:25;;;;;;;6.43;3.20;;;;;;;20.04;39.28;96414.38;5032273;28;20037;-74
2020/12/29 02:14:51;;;;;;;5.13;3.25;;;;;;;20.03;39.22;96413.53;5032300;28;20049;-73
2020/12/29 02:17:17;;;;;;;4.45;2.83;;;;;;;20.04;39.42;96419.63;5032185;28;20083;-74
2020/12/29 02:19:43;;;;;;;5.05;2.97;;;;;;;20.04;39.12;96423.09;5031380;28;20042;-74
2020/12/29 02:22:08;;;;;;;5.80;3.50;;;;;;;20.05;39.13;96421.31;5032228;28;20387;-74
2020/12/29 02:24:34;;;;;;;4.43;2.72;;;;;;;20.03;39.29;96426.69;5031809;28;20073;-73
2020/12/29 02:27:03;;;;;;;5.18;2.95;;;;;;;20.03;39.16;96426.69;5032106;28;20120;-75
2020/12/29 02:29:33;;;;;;;5.40;3.05;;;;;;;20.03;39.27;96429.31;5032089;28;20482;-75
2020/12/29 02:32:03;;;;;;;5.22;3.05;;;;;;;20.05;39.08;96435.28;5030745;28;20034;-76
2020/12/29 02:34:29;;;;;;;5.90;3.33;;;;;;;20.03;39.39;96446.88;5031858;28;20025;-76
2020/12/29 02:36:54;;;;;;;6.03;3.30;;;;;;;20.05;39.24;96452.84;5032078;28;20029;-74
2020/12/29 02:39:20;;;;;;;6.05;3.63;;;;;;;20.03;39.24;96454.75;5031876;28;20041;-73
2020/12/29 02:41:45;;;;;;;5.65;3.70;;;;;;;20.02;39.34;96467.03;5031932;28;20026;-75
2020/12/29 02:44:19;;;;;;;5.90;3.83;;;;;;;20.03;39.37;96465.28;5028176;28;20041;-73
2020/12/29 02:46:48;;;;;;;;;;;;;;;19.98;39.31;96467.41;5008036;28;20030;-73
2020/12/29 02:49:14;;;;;;;6.15;3.50;;;;;;;20.01;39.27;96473.25;4991643;28;19937;-72
2020/12/29 02:51:39;;;;;;;4.65;2.90;;;;;;;20.02;39.13;96477.56;5002692;28;20496;-72
2020/12/29 02:54:05;;;;;;;6.43;3.60;;;;;;;20.01;39.16;96470.63;4992365;28;20031;-75
2020/12/29 02:56:30;;;;;;;6.05;3.80;;;;;;;20.02;39.25;96472.31;4991709;28;20080;-72
2020/12/29 02:58:55;;;;;;;6.30;3.40;;;;;;;20.02;39.17;96476.75;5011501;28;20034;-74
2020/12/29 03:01:26;;;;;;;5.97;3.33;;;;;;;20.01;39.08;96478.50;5010295;28;20402;-74
2020/12/29 03:03:51;;;;;;;6.07;3.55;;;;;;;20.02;39.32;96480.19;4997216;28;20077;-76
2020/12/29 03:06:16;;;;;;;6.18;3.53;;;;;;;20.02;39.18;96490.69;5011526;28;20077;-75
2020/12/29 03:08:42;;;;;;;6.10;3.10;;;;;;;20.02;39.29;96503.84;5011922;28;20453;-72
2020/12/29 03:11:07;;;;;;;5.60;3.25;;;;;;;20.02;39.42;96503.03;5011881;28;20499;-74
2020/12/29 03:13:33;;;;;;;5.13;3.33;;;;;;;20.01;39.29;96510.06;5011669;28;20041;-72
2020/12/29 03:15:58;;;;;;;5.75;4.13;;;;;;;20.01;39.13;96517.13;5010721;28;20042;-72
2020/12/29 03:18:23;;;;;;;5.95;4.05;;;;;;;20.03;39.27;96521.28;5011322;28;20070;-76
2020/12/29 03:20:49;;;;;;;6.13;3.83;;;;;;;20.01;39.20;96525.81;5011175;28;20041;-77
2020/12/29 03:23:14;;;;;;;5.50;3.33;;;;;;;20.01;39.17;96536.34;5011720;28;20037;-74
2020/12/29 03:25:39;;;;;;;7.43;3.90;;;;;;;20.00;39.40;96534.69;5011714;28;20034;-75
2020/12/29 03:28:05;;;;;;;5.55;3.25;;;;;;;20.00;39.09;96549.59;5011767;28;20038;-74
2020/12/29 03:30:30;;;;;;;6.05;3.60;;;;;;;20.00;39.29;96554.84;5011651;28;20072;-75
2020/12/29 03:32:55;;;;;;;5.57;3.58;;;;;;;20.02;39.34;96556.41;5011211;28;20037;-75
2020/12/29 03:35:22;;;;;;;5.80;3.53;;;;;;;20.01;39.28;96561.78;5011337;28;20038;-76
2020/12/29 03:37:48;;;;;;;6.50;3.67;;;;;;;20.03;39.27;96570.41;5011470;28;20046;-72
2020/12/29 03:40:13;;;;;;;4.85;3.28;;;;;;;20.01;39.27;96582.81;5011651;28;20041;-73
2020/12/29 03:42:39;;;;;;;4.88;3.42;;;;;;;20.00;39.11;96582.00;5011461;28;20033;-74
2020/12/29 03:45:04;;;;;;;5.90;3.35;;;;;;;20.02;39.25;96581.88;5002461;28;20054;-73
2020/12/29 03:47:29;;;;;;;5.45;3.38;;;;;;;20.02;39.09;96587.94;5006637;28;20407;-73
2020/12/29 03:49:55;;;;;;;5.00;3.42;;;;;;;20.02;39.26;96592.38;4991542;28;20038;-77
2020/12/29 03:52:20;;;;;;;5.93;3.50;;;;;;;20.01;39.28;96594.16;4999589;28;20114;-74
2020/12/29 03:54:45;;;;;;;5.10;3.55;;;;;;;20.02;39.23;96601.06;4991786;28;20073;-73
2020/12/29 03:57:11;;;;;;;4.85;3.13;;;;;;;20.01;39.25;96604.66;4991837;28;20122;-72
2020/12/29 03:59:36;;;;;;;5.00;3.30;;;;;;;20.02;39.21;96601.06;5007880;28;20076;-74
2020/12/29 04:02:02;;;;;;;6.15;4.07;;;;;;;20.01;39.07;96601.22;5011030;28;20022;-76
2020/12/29 04:04:27;;;;;;;5.25;2.97;;;;;;;20.01;39.33;96603.84;5000954;28;20034;-73
2020/12/29 04:06:52;;;;;;;5.03;3.60;;;;;;;20.00;39.23;96613.53;4991330;28;20038;-76
2020/12/29 04:09:29;;;;;;;5.50;3.38;;;;;;;19.98;39.08;96618.06;4991867;28;20038;-76
2020/12/29 04:11:54;;;;;;;6.35;3.83;;;;;;;20.00;39.17;96623.19;4992052;28;20031;-76
2020/12/29 04:14:19;;;;;;;4.68;2.97;;;;;;;20.00;39.28;96625.81;4992206;28;20030;-72
2020/12/29 04:16:45;;;;;;;5.25;3.63;;;;;;;19.97;39.15;96626.91;4994804;28;20185;-75
2020/12/29 04:19:10;;;;;;;5.15;3.28;;;;;;;20.00;39.19;96639.81;4994510;28;20081;-74
2020/12/29 04:21:39;;;;;;;5.05;3.10;;;;;;;19.98;39.31;96639.09;4995032;28;20533;-73
2020/12/29 04:24:04;;;;;;;4.25;2.75;;;;;;;19.99;39.15;96639.91;4994853;28;20039;-74
2020/12/29 04:26:29;;;;;;;6.20;3.75;;;;;;;20.02;39.28;96637.06;4994972;28;20037;-74
2020/12/29 04:28:55;;;;;;;4.80;3.40;;;;;;;19.99;39.22;96643.38;4994738;28;20035;-73
2020/12/29 04:31:23;;;;;;;4.75;3.08;;;;;;;19.98;39.16;96648.75;4994623;28;20038;-74
2020/12/29 04:33:49;;;;;;;6.25;3.63;;;;;;;19.97;39.06;96645.28;4994676;28;20039;-74
2020/12/29 04:36:14;;;;;;;4.72;2.80;;;;;;;19.98;39.14;96643.47;4994611;28;20089;-76
2020/12/29 04:38:40;;;;;;;4.75;2.67;;;;;;;19.98;39.10;96652.22;4994810;28;20041;-75
2020/12/29 04:41:05;;;;;;;7.43;3.70;;;;;;;20.00;39.20;96654.72;4994713;28;20066;-74
2020/12/29 04:43:32;;;;;;;5.63;3.22;;;;;;;19.98;39.15;96660.09;4994412;28;20046;-76
2020/12/29 04:46:03;;;;;;;4.90;2.97;;;;;;;19.96;39.13;96662.00;4994231;28;20579;-74
2020/12/29 04:48:29;;;;;;;3.67;2.70;;;;;;;19.97;39.29;96655.81;4994217;28;20033;-73
2020/12/29 04:51:04;;;;;;;4.18;2.85;;;;;;;19.97;39.12;96658.44;5000596;28;20044;-75
2020/12/29 04:53:32;;;;;;;4.00;2.95;;;;;;;19.99;39.27;96660.94;4994550;28;20030;-73
2020/12/29 04:56:04;;;;;;;4.75;3.00;;;;;;;19.96;39.09;96669.91;4994479;28;20051;-76
2020/12/29 04:58:35;;;;;;;4.57;3.08;;;;;;;19.95;39.14;96675.25;4992105;28;20076;-75
2020/12/29 05:01:06;;;;;;;4.60;2.80;;;;;;;19.98;39.16;96675.88;4994255;28;20526;-75
2020/12/29 05:03:42;;;;;;;5.85;3.05;;;;;;;20.00;39.17;96673.13;4993813;28;20632;-72
2020/12/29 05:06:07;;;;;;;4.97;2.92;;;;;;;20.04;38.98;96679.81;4993801;28;20046;-72
2020/12/29 05:08:33;;;;;;;5.75;2.80;;;;;;;19.98;39.04;96689.00;4994152;28;20046;-73
2020/12/29 05:10:58;;;;;;;4.95;2.67;;;;;;;19.95;39.33;96683.97;4994114;28;20042;-73
2020/12/29 05:13:24;;;;;;;4.57;3.20;;;;;;;19.93;39.32;96697.22;4993536;28;20037;-73
2020/12/29 05:15:49;;;;;;;3.20;2.53;;;;;;;19.92;39.38;96711.34;4994237;28;20101;-75
2020/12/29 05:18:14;;;;;;;4.63;2.70;;;;;;;19.93;39.25;96707.72;4993527;28;20034;-73
2020/12/29 05:20:40;;;;;;;7.05;3.58;;;;;;;19.93;39.10;96723.50;4993621;28;20040;-74
2020/12/29 05:23:05;;;;;;;4.43;2.70;;;;;;;19.95;39.11;96717.28;4992569;28;20065;-73
2020/12/29 05:25:31;;;;;;;4.97;3.03;;;;;;;19.93;39.25;96715.63;4993372;28;20053;-73
2020/12/29 05:27:57;;;;;;;5.25;2.65;;;;;;;19.93;39.11;96730.56;4991740;28;20038;-72
2020/12/29 05:30:22;;;;;;;5.72;3.20;;;;;;;19.95;39.01;96738.31;4993648;28;20093;-76
2020/12/29 05:32:48;;;;;;;4.03;2.85;;;;;;;19.95;39.18;96744.44;4993660;28;20503;-73
2020/12/29 05:35:14;;;;;;;4.95;2.85;;;;;;;19.96;39.26;96751.34;4993397;28;20084;-71
2020/12/29 05:37:41;;;;;;;4.65;2.88;;;;;;;19.96;39.21;96755.75;4993622;28;20034;-75
2020/12/29 05:40:27;;;;;;;5.25;2.92;;;;;;;19.95;39.11;96757.56;4993738;28;20503;-73
2020/12/29 05:42:57;;;;;;;4.35;2.80;;;;;;;19.95;39.11;96756.72;4993171;28;20435;-75
2020/12/29 05:45:27;;;;;;;5.03;2.78;;;;;;;19.93;39.14;96762.09;5004889;28;20490;-76
2020/12/29 05:47:55;;;;;;;5.68;3.47;;;;;;;19.94;38.94;96766.41;5012815;28;20038;-72
2020/12/29 05:50:21;;;;;;;5.55;2.17;;;;;;;19.95;38.99;96760.19;5012694;28;20491;-72
2020/12/29 05:52:52;;;;;;;5.13;2.95;;;;;;;19.95;39.36;96767.22;4998018;28;20042;-73
2020/12/29 05:55:19;;;;;;;6.78;2.90;;;;;;;19.94;39.19;96769.03;4993259;28;20549;-75
2020/12/29 05:57:56;;;;;;;5.88;3.22;;;;;;;19.94;39.24;96766.41;4996598;28;20029;-74
2020/12/29 06:00:28;;;;;;;4.85;3.10;;;;;;;19.94;39.05;96774.28;5021052;28;20045;-73
2020/12/29 06:02:56;;;;;;;4.68;2.72;;;;;;;19.96;39.25;96780.25;5032197;28;20506;-72
2020/12/29 06:05:25;;;;;;;4.55;2.78;;;;;;;19.95;39.03;96789.09;5032329;28;20167;-76
2020/12/29 06:08:23;;;;;;;4.95;2.70;;;;;;;19.92;39.18;96786.69;5032266;28;20046;-72
2020/12/29 06:10:59;;;;;;;4.47;2.65;;;;;;;19.96;39.29;96792.56;5020646;28;20041;-73
2020/12/29 06:13:27;;;;;;;5.90;2.47;;;;;;;19.92;39.07;96803.31;5032284;28;20038;-72
2020/12/29 06:15:59;;;;;;;4.65;2.90;;;;;;;19.90;39.19;96807.84;5019358;28;20030;-72
2020/12/29 06:18:37;;;;;;;3.75;2.60;;;;;;;19.89;39.07;96806.16;4992534;28;20030;-74
2020/12/29 06:21:07;;;;;;;4.90;3.03;;;;;;;19.90;39.21;96807.84;4992410;28;20121;-76
2020/12/29 06:23:43;;;;;;;4.40;2.28;;;;;;;19.86;39.07;96816.00;4992794;28;20053;-72
2020/12/29 06:26:09;;;;;;;4.82;2.60;;;;;;;19.88;39.26;96822.88;4992652;28;20073;-72
2020/12/29 06:28:47;;;;;;;4.53;2.47;;;;;;;19.87;39.39;96817.72;4992727;28;20065;-71
2020/12/29 06:31:21;;;;;;;4.05;2.40;;;;;;;19.88;39.02;96827.28;4992580;28;20068;-76
2020/12/29 06:33:48;;;;;;;5.07;2.58;;;;;;;19.89;39.19;96832.44;4992445;28;20054;-75
2020/12/29 06:36:16;;;;;;;5.47;2.75;;;;;;;19.89;39.28;96832.44;4992889;28;20085;-76
2020/12/29 06:38:44;;;;;;;4.13;2.72;;;;;;;19.89;39.21;96842.09;4992453;28;20060;-74
2020/12/29 06:41:09;;;;;;;3.75;2.30;;;;;;;19.88;39.20;96841.28;4992230;28;20085;-74
2020/12/29 06:43:35;;;;;;;4.97;2.58;;;;;;;19.91;39.25;96855.97;4992371;28;20042;-76
2020/12/29 06:46:12;;;;;;;5.72;2.63;;;;;;;19.88;39.14;96858.81;4992598;28;20034;-76
2020/12/29 06:48:38;;;;;;;4.07;2.35;;;;;;;19.90;39.25;96868.28;4991427;28;20487;-73
2020/12/29 06:51:11;;;;;;;4.85;2.70;;;;;;;19.89;39.24;96871.84;4999571;28;20032;-72
2020/12/29 06:53:43;;;;;;;5.07;2.88;;;;;;;19.90;39.07;96881.41;5012010;28;20046;-75
2020/12/29 06:56:14;;;;;;;4.25;2.50;;;;;;;19.88;39.12;96880.69;5011715;28;20036;-74
2020/12/29 06:58:39;;;;;;;4.18;2.53;;;;;;;19.90;39.38;96881.41;5011883;28;20108;-75
2020/12/29 07:01:23;;;;;;;5.07;2.30;;;;;;;19.87;39.26;96892.16;4997758;28;20113;-76
2020/12/29 07:04:04;;;;;;;4.50;2.95;;;;;;;19.86;39.18;96900.94;4992074;28;20039;-74
2020/12/29 07:06:31;;;;;;;3.83;2.50;;;;;;;19.90;39.13;96912.09;4992166;28;20113;-75
2020/12/29 07:09:06;;;;;;;6.03;3.15;;;;;;;19.90;39.21;96917.34;4991866;28;20038;-75
2020/12/29 07:11:32;;;;;;;6.50;2.70;;;;;;;19.92;39.08;96923.34;4990908;28;20049;-77
2020/12/29 07:14:02;;;;;;;4.47;2.55;;;;;;;19.91;38.96;96929.53;4992037;28;20030;-74
2020/12/29 07:16:28;;;;;;;4.30;2.50;;;;;;;19.92;39.25;96936.47;4992100;28;20030;-75
2020/12/29 07:19:07;;;;;;;6.68;3.28;;;;;;;19.91;39.19;96938.28;4990225;28;20038;-75
2020/12/29 07:21:34;;;;;;;3.90;2.53;;;;;;;19.90;39.14;96944.47;4992171;28;20093;-76
2020/12/29 07:24:06;;;;;;;4.63;2.70;;;;;;;19.91;39.39;96946.16;4991931;28;20117;-73
2020/12/29 07:26:40;;;;;;;5.13;2.70;;;;;;;19.89;39.18;96957.72;4991980;28;20462;-75
2020/12/29 07:29:06;;;;;;;5.88;3.15;;;;;;;19.90;39.08;96962.88;4992064;28;20038;-74
2020/12/29 07:31:35;;;;;;;5.75;2.67;;;;;;;19.89;39.02;96962.97;4991204;28;20442;-74
2020/12/29 07:34:02;;;;;;;5.72;2.58;;;;;;;19.88;39.13;96963.91;4991700;28;20046;-76
2020/12/29 07:36:28;;;;;;;5.45;2.67;;;;;;;19.88;39.17;96971.81;4991966;28;20034;-75
2020/12/29 07:38:54;;;;;;;4.63;2.42;;;;;;;19.89;39.24;96984.84;4991588;28;20129;-75
2020/12/29 07:41:20;;;;;;;4.07;2.40;;;;;;;19.91;39.15;96985.59;4991989;28;20038;-72
2020/12/29 07:43:46;;;;;;;5.90;2.78;;;;;;;19.90;39.07;96988.31;4991855;28;20046;-72
2020/12/29 07:46:12;;;;;;;4.13;2.40;;;;;;;19.91;39.17;96993.47;4991951;28;20121;-74
2020/12/29 07:48:38;;;;;;;4.95;2.53;;;;;;;19.90;39.35;96994.41;4991462;28;20081;-72
2020/12/29 07:51:04;;;;;;;4.28;2.75;;;;;;;19.90;39.24;97001.44;4994888;28;20553;-72
2020/12/29 07:53:31;;;;;;;6.10;2.88;;;;;;;19.90;39.20;97001.44;4995383;28;20543;-76
2020/12/29 07:55:56;;;;;;;3.97;2.58;;;;;;;19.90;39.05;97009.31;4995693;28;20404;-73
2020/12/29 07:58:22;;;;;;;4.38;2.75;;;;;;;19.90;39.25;97014.56;4999587;28;20038;-73
2020/12/29 08:00:47;;;;;;;5.35;3.17;;;;;;;19.89;39.19;97020.78;5006935;28;20041;-74
2020/12/29 08:03:13;;;;;;;4.32;2.40;;;;;;;19.90;39.11;97025.09;5014692;28;20037;-74
2020/12/29 08:05:39;;;;;;;5.18;2.63;;;;;;;19.92;39.20;97031.94;5014873;28;20580;-74
2020/12/29 08:08:06;;;;;;;6.43;2.83;;;;;;;19.91;39.21;97034.66;5014558;28;20041;-72
2020/12/29 08:10:34;;;;;;;5.10;2.88;;;;;;;19.90;39.31;97039.09;5014889;28;20069;-76
2020/12/29 08:13:04;;;;;;;4.97;2.58;;;;;;;19.90;39.05;97043.47;5014702;28;20042;-76
2020/12/29 08:15:40;;;;;;;3.92;2.50;;;;;;;19.89;39.28;97045.28;5014952;28;20045;-77
2020/12/29 08:18:07;;;;;;;4.68;2.53;;;;;;;19.90;39.08;97054.00;5014470;28;20042;-74
2020/12/29 08:20:33;;;;;;;7.47;3.22;;;;;;;19.93;39.18;97059.88;5014309;28;20041;-75
2020/12/29 08:23:04;;;;;;;8.02;2.97;;;;;;;19.93;38.99;97065.13;5013666;28;20097;-79
2020/12/29 08:25:33;;;;;;;5.00;2.75;;;;;;;19.95;39.03;97070.28;5013109;28;20034;-78
2020/12/29 08:28:00;;;;;;;4.13;2.53;;;;;;;19.96;39.32;97073.75;5011455;28;20049;-72
2020/12/29 08:30:26;;;;;;;4.85;3.10;;;;;;;19.96;39.16;97077.22;5014556;28;20042;-73
2020/12/29 08:32:53;;;;;;;14.75;2.97;;;;;;;19.97;39.15;97088.56;5014282;28;20510;-73
2020/12/29 08:35:19;;;;;;;11.77;3.13;;;;;;;19.98;39.05;97088.47;5014474;28;20038;-79
2020/12/29 08:38:18;;;;;;;5.60;3.08;;;;;;;19.99;39.18;97090.16;5014146;28;20060;-72
2020/12/29 08:40:51;;;;;;;19.23;3.42;;;;;;;20.03;38.93;97091.63;5010662;28;20096;-75
2020/12/29 08:43:17;;;;;;;8.15;2.58;;;;;;;20.06;39.05;97096.66;5014158;28;20117;-75
2020/12/29 08:45:43;;;;;;;4.72;2.60;;;;;;;20.07;39.12;97108.03;5002482;28;20121;-74
2020/12/29 08:48:08;;;;;;;5.35;3.05;;;;;;;20.08;39.26;97107.09;5005276;28;20099;-76
2020/12/29 08:50:34;;;;;;;6.05;3.25;;;;;;;20.08;39.18;97110.53;4994910;28;20097;-76
2020/12/29 08:53:07;;;;;;;5.72;3.00;;;;;;;20.07;39.11;97118.53;5008235;28;20034;-72
2020/12/29 08:55:34;;;;;;;6.10;2.95;;;;;;;20.09;39.29;97116.63;5012037;28;20498;-75
2020/12/29 08:58:00;;;;;;;4.20;2.15;;;;;;;20.08;39.06;97122.84;5013326;28;20041;-75
2020/12/29 09:00:28;;;;;;;5.50;2.67;;;;;;;20.11;39.18;97134.94;5004019;28;20034;-80
2020/12/29 09:02:53;;;;;;;6.65;2.63;;;;;;;20.10;39.24;97141.97;4992221;28;20411;-76
2020/12/29 09:05:26;;;;;;;7.93;4.10;;;;;;;20.12;39.09;97142.69;4993516;28;20092;-72
2020/12/29 09:07:52;;;;;;;11.18;4.28;;;;;;;20.08;38.77;97143.88;5004524;28;20046;-75
2020/12/29 09:10:19;;;;;;;9.90;4.07;;;;;;;20.11;38.63;97163.84;4994235;28;20455;-80
2020/12/29 09:12:44;;;;;;;6.25;4.00;;;;;;;20.07;38.86;97165.88;5001487;28;20498;-73
2020/12/29 09:15:12;;;;;;;8.45;4.43;;;;;;;20.06;38.76;97174.69;5013503;28;20030;-74
2020/12/29 09:17:42;;;;;;;6.57;4.07;;;;;;;20.05;38.81;97176.47;5013460;28;20030;-74
2020/12/29 09:20:21;;;;;;;8.43;3.33;;;;;;;20.08;38.66;97184.16;5012718;28;20124;-72
2020/12/29 09:23:01;;;;;;;6.80;4.28;;;;;;;20.13;38.85;97175.94;5013429;28;20036;-76
2020/12/29 09:25:35;;;;;;;8.82;2.90;;;;;;;20.16;38.69;97167.84;5001039;28;20046;-74
2020/12/29 09:28:08;;;;;;;9.25;3.20;;;;;;;20.18;38.59;97186.97;5008202;28;20041;-76
2020/12/29 09:30:33;;;;;;;5.90;3.38;;;;;;;20.18;38.67;97189.63;5013287;28;20034;-77
2020/12/29 09:32:59;;;;;;;7.97;3.03;;;;;;;20.18;38.68;97196.66;5013025;28;20030;-75
2020/12/29 09:35:25;;;;;;;11.07;3.72;;;;;;;20.18;38.68;97208.03;5012843;28;20041;-72
2020/12/29 09:37:52;;;;;;;6.78;3.63;;;;;;;20.20;38.95;97210.53;5010787;28;20038;-78
2020/12/29 09:40:17;;;;;;;21.98;3.42;;;;;;;20.25;38.78;97208.44;5010569;28;20795;-73
2020/12/29 09:42:42;;;;;;;7.20;3.35;;;;;;;20.30;38.81;97213.38;5010725;28;20033;-72
2020/12/29 09:45:08;;;;;;;6.13;3.25;;;;;;;20.34;38.87;97215.69;5011832;28;20053;-72
2020/12/29 09:47:33;;;;;;;7.20;3.22;;;;;;;20.36;38.50;97210.34;5008144;28;20412;-77
2020/12/29 09:49:59;;;;;;;9.07;3.17;;;;;;;20.42;38.54;97209.06;5003324;28;20038;-73
2020/12/29 09:52:31;;;;;;;6.82;3.40;;;;;;;20.53;38.68;97220.53;4993264;28;20031;-75
2020/12/29 09:54:56;;;;;;;10.85;3.10;;;;;;;20.62;38.33;97213.78;4991783;28;20491;-78
2020/12/29 09:57:22;;;;;;;4.45;2.63;;;;;;;20.72;38.30;97223.66;4993359;28;20053;-75
2020/12/29 09:59:47;;;;;;;7.57;3.17;;;;;;;20.63;38.48;97222.50;4996207;28;20022;-75
2020/12/29 10:02:12;;;;;;;5.57;3.20;;;;;;;20.66;38.58;97235.44;5012330;28;20546;-72
2020/12/29 10:04:38;;;;;;;8.20;3.03;;;;;;;20.60;38.85;97241.97;5012096;28;20056;-75
2020/12/29 10:07:03;;;;;;;6.65;2.90;;;;;;;20.55;38.88;97238.81;5005103;28;20106;-78
2020/12/29 10:09:28;;;;;;;5.38;3.45;;;;;;;20.51;39.03;97261.00;4991865;28;20040;-75
2020/12/29 10:11:54;;;;;;;7.15;3.35;;;;;;;20.49;39.10;97260.28;4999443;28;20025;-76
2020/12/29 10:14:19;;;;;;;9.77;3.22;;;;;;;20.45;39.07;97264.09;5012630;28;20033;-78
2020/12/29 10:16:45;;;;;;;8.18;3.30;;;;;;;20.45;39.23;97275.44;5012298;28;20108;-79
2020/12/29 10:19:11;;;;;;;4.70;2.75;;;;;;;20.42;39.17;97290.59;5011763;28;20110;-75
2020/12/29 10:21:36;;;;;;;7.63;3.03;;;;;;;20.41;39.23;97283.66;5012463;28;20041;-77
2020/12/29 10:24:02;;;;;;;6.82;3.35;;;;;;;20.44;39.38;97288.72;5012278;28;20033;-76
2020/12/29 10:26:27;;;;;;;5.10;3.00;;;;;;;20.49;39.03;97283.94;5008326;28;20404;-74
2020/12/29 10:28:53;;;;;;;4.90;3.15;;;;;;;20.53;38.96;97281.03;5008924;28;20108;-74
2020/12/29 10:31:18;;;;;;;5.85;3.25;;;;;;;20.52;39.12;97294.25;5010209;28;20026;-73
2020/12/29 10:33:43;;;;;;;8.35;2.60;;;;;;;20.51;39.25;97287.31;5009296;28;20033;-73
2020/12/29 10:36:09;;;;;;;7.80;2.95;;;;;;;20.49;39.23;97295.34;5009739;28;20062;-72
2020/12/29 10:38:34;;;;;;;7.13;3.28;;;;;;;20.50;39.15;97291.75;5011859;28;20034;-73
2020/12/29 10:41:00;;;;;;;7.10;2.92;;;;;;;20.54;39.05;97289.75;5011886;28;20434;-73
2020/12/29 10:43:25;;;;;;;5.50;3.10;;;;;;;20.53;39.01;97302.06;5012064;28;20030;-72
2020/12/29 10:45:50;;;;;;;6.95;2.80;;;;;;;20.51;38.99;97301.34;5011773;28;20026;-74
2020/12/29 10:48:16;;;;;;;10.43;3.00;;;;;;;20.51;39.23;97305.72;5011158;28;20045;-72
2020/12/29 10:50:41;;;;;;;8.82;2.90;;;;;;;20.49;39.16;97315.50;5011397;28;20096;-72
2020/12/29 10:53:06;;;;;;;8.02;2.63;;;;;;;20.48;39.18;97317.31;4995249;28;20034;-73
2020/12/29 10:55:31;;;;;;;4.53;2.65;;;;;;;20.49;39.33;97320.78;4999690;28;20046;-74
2020/12/29 10:57:57;;;;;;;5.95;3.30;;;;;;;20.51;39.15;97327.63;5011485;28;20060;-75
2020/12/29 11:00:22;;;;;;;4.20;2.63;;;;;;;20.51;39.11;97335.53;5003188;28;20513;-75
2020/12/29 11:02:47;;;;;;;5.85;2.58;;;;;;;20.53;39.14;97340.69;5002147;28;20030;-79
2020/12/29 11:05:13;;;;;;;5.72;2.45;;;;;;;20.53;39.16;97345.94;5011321;28;20041;-74
2020/12/29 11:07:38;;;;;;;6.15;2.38;;;;;;;20.49;39.37;97347.94;5011592;28;20064;-75
2020/12/29 11:10:04;;;;;;;8.27;3.20;;;;;;;20.51;39.05;97348.69;5011446;28;20135;-74
2020/12/29 11:12:29;;;;;;;5.90;3.22;;;;;;;20.49;39.30;97347.94;5011624;28;20037;-73
2020/12/29 11:14:54;;;;;;;6.00;2.35;;;;;;;20.50;39.37;97348.75;5011775;28;20038;-73
2020/12/29 11:17:22;;;;;;;4.13;2.45;;;;;;;20.46;39.46;97347.31;5010023;28;20040;-72
2020/12/29 11:19:47;;;;;;;7.75;2.88;;;;;;;20.49;39.24;97349.72;5011071;28;20042;-72
2020/12/29 11:22:13;;;;;;;4.40;2.45;;;;;;;20.53;39.27;97346.78;5011507;28;20040;-75
2020/12/29 11:24:38;;;;;;;4.63;2.70;;;;;;;20.53;39.16;97352.06;5012704;28;20042;-74
2020/12/29 11:27:03;;;;;;;4.68;2.60;;;;;;;20.58;39.06;97350.88;5008114;28;20402;-73
2020/12/29 11:29:29;;;;;;;4.93;2.78;;;;;;;20.56;39.07;97356.25;5015518;28;20038;-74
2020/12/29 11:31:54;;;;;;;4.13;2.45;;;;;;;20.56;39.27;97361.53;5014775;28;20030;-74
2020/12/29 11:34:19;;;;;;;6.03;2.88;;;;;;;20.55;39.21;97370.34;5015426;28;20106;-73